首页
METAR-TAF:

METAR-TAF

机场 :

萨格勒布机场

萨格勒布, 克罗地亚

纬度: 45-44N, 经度: 016-04E, 海拔: 106米

当前天气观测

该预报发布于10分钟前的08:30 UTC
风速3节,风向西转西南,在南转西南西转西北之间变化
温度 27°C
湿度 66%
气压 1017 hPa
能见度10公里或以上
1500米以下无云,无积雨云

METAR: LDZA 090830Z 25003KT 200V300 CAVOK 27/20 Q1017 NOSIG

时间: 10:40 (08:40 UTC)

预报

该预报发布于3小时和15分钟前的05:25 UTC
预报有效从09日的 06点(UTC)到 10日的 06点(UTC)
风速5节,风向西转西南
能见度10公里或以上
1500米以下无云,无积雨云

TAF: LDZA 090525Z 0906/1006 24005KT CAVOK TX32/0913Z TN17/1004Z

超过4000个机场的气象观测和天气预报(METAR&TAF报告)。

可查询的气象台以黄色和红色小点在地图上表示。

将鼠标移到小点上方,可查看气象台名称。

然后点击查看天气观测和预报。

如需切换地图:点击带黑十字的绿色按钮放大地图;点击带横线的绿色按钮缩小地图;或者点击绿色箭头查看邻近地区的地图。


METAR-TAF: